Time;durP1;ratioP1;P1;durP2;ratioP2;P2;SDS_P1;SDS_P2;PMS_P1;PMS_P2;Temp;Humidity;BMP_temperature;BMP_pressure;BME280_temperature;BME280_humidity;BME280_pressure;Samples;Min_cycle;Max_cycle;Signal;HPM_P1;HPM_P2
2024/03/29 00:01:15;;;;;;;10.85;4.30;;;21.00;99.90;;;;;;5051886;28;20443;-44
2024/03/29 00:03:41;;;;;;;17.58;4.43;;;20.90;99.90;;;;;;5053031;28;20033;-42
2024/03/29 00:06:07;;;;;;;13.55;4.20;;;21.00;99.90;;;;;;5053225;28;20107;-43
2024/03/29 00:08:33;;;;;;;11.18;4.05;;;20.90;99.90;;;;;;5052820;28;20096;-43
2024/03/29 00:10:58;;;;;;;11.95;4.00;;;20.90;99.90;;;;;;5035254;28;20385;-44
2024/03/29 00:13:24;;;;;;;13.32;4.03;;;20.90;99.90;;;;;;5052794;28;20025;-43
2024/03/29 00:15:50;;;;;;;11.80;3.67;;;20.90;99.90;;;;;;5052616;28;20484;-43
2024/03/29 00:18:16;;;;;;;10.30;3.40;;;20.90;99.90;;;;;;5052743;28;20024;-43
2024/03/29 00:20:42;;;;;;;8.95;3.65;;;20.90;99.90;;;;;;5052025;28;20032;-43
2024/03/29 00:23:08;;;;;;;13.10;3.67;;;20.90;99.90;;;;;;5052643;28;20021;-44
2024/03/29 00:25:34;;;;;;;10.10;3.58;;;20.90;99.90;;;;;;5052156;28;20492;-43
2024/03/29 00:28:01;;;;;;;12.00;4.72;;;20.90;99.90;;;;;;5052776;28;20025;-43
2024/03/29 00:30:26;;;;;;;10.32;3.28;;;20.90;99.90;;;;;;5052554;28;20496;-46
2024/03/29 00:32:52;;;;;;;8.48;3.15;;;20.90;99.90;;;;;;5052573;28;20029;-45
2024/03/29 00:35:20;;;;;;;8.52;3.72;;;20.90;99.90;;;;;;5051732;28;20384;-45
2024/03/29 00:37:46;;;;;;;8.93;3.28;;;21.00;99.90;;;;;;5047757;28;20036;-45
2024/03/29 00:40:11;;;;;;;13.55;3.60;;;21.00;99.90;;;;;;5049165;28;20481;-46
2024/03/29 00:42:37;;;;;;;10.88;3.40;;;21.00;99.90;;;;;;5052509;28;20032;-46
2024/03/29 00:45:03;;;;;;;10.57;3.33;;;21.00;99.90;;;;;;5052890;28;20381;-45
2024/03/29 00:47:29;;;;;;;11.18;3.90;;;21.00;99.90;;;;;;5052158;28;20021;-46
2024/03/29 00:49:55;;;;;;;11.18;3.50;;;21.00;99.90;;;;;;5052703;28;20036;-45
2024/03/29 00:52:21;;;;;;;11.70;3.03;;;21.00;99.90;;;;;;5030562;28;20013;-45
2024/03/29 00:54:47;;;;;;;9.25;3.50;;;21.00;99.90;;;;;;5052166;28;20385;-47
2024/03/29 00:57:14;;;;;;;12.40;3.65;;;21.00;99.90;;;;;;5050535;28;20024;-46
2024/03/29 00:59:40;;;;;;;14.73;2.65;;;21.00;99.90;;;;;;5052746;28;20029;-45
2024/03/29 01:02:06;;;;;;;11.50;4.25;;;21.00;99.90;;;;;;5051476;28;20106;-45
2024/03/29 01:04:31;;;;;;;10.40;3.10;;;21.00;99.90;;;;;;5051451;28;20091;-46
2024/03/29 01:06:57;;;;;;;6.78;2.97;;;21.00;99.90;;;;;;5033702;28;20017;-45
2024/03/29 01:09:23;;;;;;;12.00;3.17;;;21.00;99.90;;;;;;5047087;28;20037;-45
2024/03/29 01:11:51;;;;;;;8.52;2.92;;;21.00;99.90;;;;;;5047387;28;20412;-44
2024/03/29 01:14:16;;;;;;;8.00;3.13;;;21.00;99.90;;;;;;5051382;28;20036;-45
2024/03/29 01:16:42;;;;;;;8.90;2.80;;;21.00;99.90;;;;;;5047865;28;20021;-45
2024/03/29 01:19:10;;;;;;;11.35;3.10;;;21.00;99.90;;;;;;5051079;28;20028;-44
2024/03/29 01:21:36;;;;;;;7.78;3.42;;;21.00;99.90;;;;;;5051031;28;20072;-46
2024/03/29 01:24:03;;;;;;;11.43;3.88;;;21.10;99.90;;;;;;5050408;28;20037;-45
2024/03/29 01:26:28;;;;;;;10.80;3.80;;;21.00;99.90;;;;;;5051329;28;20063;-46
2024/03/29 01:28:54;;;;;;;7.38;2.70;;;21.00;99.90;;;;;;5033453;28;20025;-47
2024/03/29 01:31:21;;;;;;;10.38;3.65;;;21.00;99.90;;;;;;5051071;28;20461;-45
2024/03/29 01:33:47;;;;;;;11.55;2.55;;;21.10;99.90;;;;;;5051180;28;20071;-47
2024/03/29 01:36:13;;;;;;;8.80;3.33;;;21.00;99.90;;;;;;5051177;28;20029;-46
2024/03/29 01:38:39;;;;;;;6.57;2.65;;;21.10;99.90;;;;;;5050660;28;20025;-47
2024/03/29 01:41:04;;;;;;;9.18;2.58;;;21.00;99.90;;;;;;5033336;28;20033;-46
2024/03/29 01:43:30;;;;;;;9.00;2.50;;;21.10;99.90;;;;;;5033128;28;20025;-45
2024/03/29 01:45:56;;;;;;;9.05;3.08;;;21.10;99.90;;;;;;5051488;28;20021;-45
2024/03/29 01:48:27;;;;;;;10.10;2.35;;;21.10;99.90;;;;;;5054190;28;20437;-48
2024/03/29 01:50:57;;;;;;;8.20;2.95;;;21.00;99.90;;;;;;5054087;28;20037;-48
2024/03/29 01:53:24;;;;;;;5.55;2.55;;;21.10;99.90;;;;;;5047115;28;20028;-47
2024/03/29 01:55:51;;;;;;;7.63;2.60;;;21.00;99.90;;;;;;5054157;28;20035;-46
2024/03/29 01:58:19;;;;;;;7.60;2.70;;;21.00;99.90;;;;;;5054578;28;20108;-46
2024/03/29 02:00:53;;;;;;;7.97;2.55;;;21.00;99.90;;;;;;5022537;22;1804208;-52
2024/03/29 02:03:19;;;;;;;7.30;2.60;;;21.10;99.90;;;;;;5035371;28;20053;-52
2024/03/29 02:05:46;;;;;;;7.05;2.78;;;21.10;99.90;;;;;;5035534;28;20048;-50
2024/03/29 02:08:13;;;;;;;7.85;2.55;;;21.10;99.90;;;;;;5035120;28;20013;-50
2024/03/29 02:10:39;;;;;;;7.43;2.77;;;21.00;99.90;;;;;;5017529;28;20474;-51
2024/03/29 02:13:05;;;;;;;8.52;2.75;;;21.00;99.90;;;;;;5035391;28;20021;-50
2024/03/29 02:15:31;;;;;;;6.40;2.55;;;21.10;99.90;;;;;;5017003;28;20037;-50
2024/03/29 02:17:58;;;;;;;8.05;2.67;;;21.10;99.90;;;;;;5035296;28;20021;-50
2024/03/29 02:20:24;;;;;;;6.60;2.63;;;21.10;99.90;;;;;;5034967;28;20018;-50
2024/03/29 02:23:11;;;;;;;5.60;2.42;;;21.10;99.90;;;;;;5034709;28;20116;-52
2024/03/29 02:25:37;;;;;;;7.90;2.30;;;21.00;99.90;;;;;;5035164;28;20500;-52
2024/03/29 02:28:04;;;;;;;7.53;2.88;;;21.10;99.90;;;;;;5017417;28;20030;-50
2024/03/29 02:30:30;;;;;;;6.25;2.33;;;21.10;99.90;;;;;;5034525;28;20060;-50
2024/03/29 02:33:00;;;;;;;4.97;2.25;;;21.00;99.90;;;;;;5035049;28;20386;-51
2024/03/29 02:35:26;;;;;;;4.15;1.90;;;21.00;99.90;;;;;;5018119;28;20014;-52
2024/03/29 02:37:52;;;;;;;5.38;2.28;;;21.10;99.90;;;;;;5040449;28;20070;-52
2024/03/29 02:40:19;;;;;;;6.28;2.60;;;21.10;99.90;;;;;;5034846;28;20026;-51
2024/03/29 02:42:45;;;;;;;6.85;1.98;;;21.10;99.90;;;;;;5042437;28;20451;-50
2024/03/29 02:45:11;;;;;;;6.32;2.33;;;21.00;99.90;;;;;;5020781;28;20116;-50
2024/03/29 02:47:37;;;;;;;7.28;2.33;;;21.00;99.90;;;;;;5034812;28;20074;-51
2024/03/29 02:50:03;;;;;;;5.35;2.33;;;21.00;99.90;;;;;;5038805;28;20393;-52
2024/03/29 02:52:29;;;;;;;9.75;3.10;;;21.00;99.90;;;;;;5036532;28;20018;-51
2024/03/29 02:54:55;;;;;;;7.25;2.30;;;21.10;99.90;;;;;;5034643;28;20113;-51
2024/03/29 02:57:21;;;;;;;5.97;2.15;;;21.00;99.90;;;;;;5037080;28;20097;-50
2024/03/29 02:59:46;;;;;;;7.47;2.50;;;21.00;99.90;;;;;;5036280;28;20036;-51
2024/03/29 03:02:12;;;;;;;13.50;3.00;;;21.00;99.90;;;;;;5075173;23;20048;-45
2024/03/29 03:04:38;;;;;;;6.70;2.50;;;21.00;99.90;;;;;;5068696;28;20468;-44
2024/03/29 03:12:32;;;;;;;6.35;2.42;;;21.00;99.90;;;;;;5064698;28;20078;-45
2024/03/29 03:15:01;;;;;;;6.20;2.78;;;21.00;99.90;;;;;;5049497;28;20036;-45
2024/03/29 03:17:28;;;;;;;10.55;2.55;;;21.00;99.90;;;;;;5060031;28;20048;-45
2024/03/29 03:19:54;;;;;;;6.93;2.72;;;21.00;99.90;;;;;;5069948;28;20097;-46
2024/03/29 03:22:20;;;;;;;7.20;2.80;;;21.00;99.90;;;;;;5072738;28;20016;-44
2024/03/29 03:24:46;;;;;;;7.13;3.05;;;21.00;99.90;;;;;;5055559;28;20029;-45
2024/03/29 03:27:12;;;;;;;5.18;1.90;;;20.90;99.90;;;;;;5050325;28;20070;-46
2024/03/29 03:29:39;;;;;;;6.22;2.28;;;20.90;99.90;;;;;;5063298;28;20028;-45
2024/03/29 03:32:06;;;;;;;6.85;2.67;;;20.90;99.90;;;;;;5063366;28;20031;-50
2024/03/29 03:34:33;;;;;;;7.07;2.53;;;20.90;99.90;;;;;;5071374;28;20464;-45
2024/03/29 03:36:58;;;;;;;10.65;2.72;;;20.90;99.90;;;;;;5073977;28;20020;-46
2024/03/29 03:39:24;;;;;;;5.78;3.03;;;20.90;99.90;;;;;;5073186;28;20054;-46
2024/03/29 03:41:50;;;;;;;9.55;2.60;;;20.90;99.90;;;;;;5073667;28;20298;-45
2024/03/29 03:44:16;;;;;;;7.20;2.70;;;20.90;99.90;;;;;;5070938;28;20044;-45
2024/03/29 03:46:43;;;;;;;4.50;2.10;;;20.90;99.90;;;;;;5073538;28;20067;-45
2024/03/29 03:49:08;;;;;;;6.53;2.53;;;20.90;99.90;;;;;;5073803;28;20033;-45
2024/03/29 03:51:34;;;;;;;8.63;2.92;;;20.90;99.90;;;;;;5073227;28;20387;-45
2024/03/29 03:54:00;;;;;;;6.55;2.67;;;20.90;99.90;;;;;;5073783;28;20056;-45
2024/03/29 03:56:26;;;;;;;6.55;3.05;;;20.90;99.90;;;;;;5073741;28;20099;-46
2024/03/29 03:58:52;;;;;;;8.93;3.13;;;20.90;99.90;;;;;;5055445;28;20027;-46
2024/03/29 04:01:18;;;;;;;3.67;1.90;;;20.90;99.90;;;;;;5048279;23;20041;-50
2024/03/29 04:03:44;;;;;;;7.05;2.97;;;20.90;99.90;;;;;;5023433;28;20432;-50
2024/03/29 04:06:10;;;;;;;5.72;2.22;;;20.90;99.90;;;;;;5026614;28;20109;-49
2024/03/29 04:08:35;;;;;;;5.00;2.50;;;20.90;99.90;;;;;;5018705;28;20176;-49
2024/03/29 04:11:04;;;;;;;6.85;2.53;;;20.90;99.90;;;;;;5024335;28;20028;-51
2024/03/29 04:13:31;;;;;;;6.65;2.75;;;20.90;99.90;;;;;;5023596;28;20075;-49
2024/03/29 04:16:03;;;;;;;6.97;3.17;;;20.90;99.90;;;;;;5027437;28;20030;-51
2024/03/29 04:18:29;;;;;;;4.95;2.83;;;20.90;99.90;;;;;;5031938;28;20033;-51
2024/03/29 04:21:02;;;;;;;6.05;2.85;;;20.80;99.90;;;;;;5032478;28;20370;-50
2024/03/29 04:23:29;;;;;;;7.00;3.42;;;20.90;99.90;;;;;;5033260;28;20083;-50
2024/03/29 04:25:59;;;;;;;9.00;2.72;;;20.90;99.90;;;;;;5033662;28;20018;-50
2024/03/29 04:28:26;;;;;;;7.97;2.85;;;20.90;99.90;;;;;;5033276;28;20056;-50
2024/03/29 04:30:56;;;;;;;8.13;3.17;;;20.90;99.90;;;;;;5033296;28;20025;-50
2024/03/29 04:33:23;;;;;;;6.97;2.58;;;20.90;99.90;;;;;;5033159;28;20100;-50
2024/03/29 04:35:56;;;;;;;5.17;2.43;;;20.90;99.90;;;;;;5033170;28;20026;-50
2024/03/29 04:38:23;;;;;;;7.97;2.85;;;20.90;99.90;;;;;;5033362;28;20469;-51
2024/03/29 04:40:53;;;;;;;9.60;3.03;;;20.90;99.90;;;;;;5033243;28;20032;-50
2024/03/29 04:43:21;;;;;;;5.43;2.40;;;20.80;99.90;;;;;;5033221;28;20432;-51
2024/03/29 04:45:47;;;;;;;6.57;2.53;;;20.90;99.90;;;;;;5033159;28;20099;-50
2024/03/29 04:48:13;;;;;;;6.20;2.47;;;20.90;99.90;;;;;;5031864;28;20483;-50
2024/03/29 04:50:40;;;;;;;6.97;3.10;;;20.90;99.90;;;;;;5033114;28;20025;-50
2024/03/29 04:53:08;;;;;;;6.97;2.70;;;20.90;99.90;;;;;;5033058;28;20018;-50
2024/03/29 04:55:34;;;;;;;8.38;2.75;;;20.90;99.90;;;;;;5031713;28;20366;-50
2024/03/29 04:58:00;;;;;;;6.82;3.03;;;20.80;99.90;;;;;;5033052;28;20120;-51
2024/03/29 05:00:26;;;;;;;5.75;2.80;;;20.90;99.90;;;;;;5033167;28;20021;-50
2024/03/29 05:02:52;;;;;;;5.65;2.60;;;20.80;99.90;;;;;;5052546;28;20052;-50
2024/03/29 05:05:17;;;;;;;5.03;2.72;;;20.80;99.90;;;;;;5053059;28;20025;-50
2024/03/29 05:07:43;;;;;;;6.15;2.67;;;20.90;99.90;;;;;;5034900;28;20025;-50
2024/03/29 05:10:09;;;;;;;10.98;2.75;;;20.80;99.90;;;;;;5052967;28;20068;-51
2024/03/29 05:12:38;;;;;;;8.48;2.40;;;20.80;99.90;;;;;;5052776;28;20100;-50
2024/03/29 05:15:04;;;;;;;5.28;2.90;;;20.80;99.90;;;;;;5052719;28;20024;-50
2024/03/29 05:17:30;;;;;;;8.30;3.92;;;20.80;99.90;;;;;;5052946;28;20032;-50
2024/03/29 05:19:56;;;;;;;8.98;2.90;;;20.80;99.90;;;;;;5034792;28;20025;-50
2024/03/29 05:22:22;;;;;;;8.60;2.80;;;20.80;99.90;;;;;;5055650;28;20096;-50
2024/03/29 05:24:50;;;;;;;6.35;2.85;;;20.80;99.90;;;;;;5056554;28;20489;-50
2024/03/29 05:27:15;;;;;;;5.55;2.85;;;20.80;99.90;;;;;;5038804;28;20354;-50
2024/03/29 05:29:41;;;;;;;7.78;2.72;;;20.80;99.90;;;;;;5056555;28;20040;-50
2024/03/29 05:32:07;;;;;;;5.38;3.20;;;20.80;99.90;;;;;;5056556;28;20484;-50
2024/03/29 05:34:33;;;;;;;6.90;2.90;;;20.80;99.90;;;;;;5056523;28;20461;-50
2024/03/29 05:36:59;;;;;;;6.75;3.15;;;20.90;99.90;;;;;;5056378;28;20025;-51
2024/03/29 05:39:25;;;;;;;7.03;2.72;;;20.80;99.90;;;;;;5056429;28;20021;-50
2024/03/29 05:41:51;;;;;;;4.50;2.47;;;20.80;99.90;;;;;;5056524;28;20044;-50
2024/03/29 05:44:17;;;;;;;8.30;3.05;;;20.80;99.90;;;;;;5056396;28;20033;-51
2024/03/29 05:46:43;;;;;;;6.88;2.85;;;20.80;99.90;;;;;;5056312;28;20484;-51
2024/03/29 05:49:08;;;;;;;8.50;2.55;;;20.80;99.90;;;;;;5056095;28;20063;-51
2024/03/29 05:51:34;;;;;;;6.63;2.85;;;20.80;99.90;;;;;;5056067;28;20021;-51
2024/03/29 05:54:03;;;;;;;7.65;3.22;;;20.80;99.90;;;;;;5056041;28;20029;-51
2024/03/29 05:56:29;;;;;;;6.32;2.58;;;20.80;99.90;;;;;;5038165;28;20021;-50
2024/03/29 05:58:55;;;;;;;9.13;3.22;;;20.80;99.90;;;;;;5055905;28;20096;-50
2024/03/29 06:01:22;;;;;;;6.55;3.08;;;20.80;99.90;;;;;;5053800;28;20123;-50
2024/03/29 06:03:51;;;;;;;6.78;2.92;;;20.80;99.90;;;;;;5054879;28;20037;-50
2024/03/29 06:06:17;;;;;;;5.82;3.10;;;20.80;99.90;;;;;;5037886;28;20025;-51
2024/03/29 06:08:46;;;;;;;3.53;2.58;;;20.80;99.90;;;;;;5055861;28;20093;-50
2024/03/29 06:11:12;;;;;;;6.93;3.20;;;20.80;99.90;;;;;;5038288;28;20090;-50
2024/03/29 06:19:11;;;;;;;7.00;3.03;;;20.80;99.90;;;;;;5055849;28;20082;-50
2024/03/29 06:21:40;;;;;;;4.95;2.83;;;20.80;99.90;;;;;;5055747;28;20424;-50
2024/03/29 06:24:07;;;;;;;6.80;2.90;;;20.80;99.90;;;;;;5053914;28;20121;-51
2024/03/29 06:26:34;;;;;;;5.43;2.65;;;20.80;99.90;;;;;;5036246;28;20103;-51
2024/03/29 06:29:01;;;;;;;4.75;3.00;;;20.80;99.90;;;;;;5053897;28;20040;-51
2024/03/29 06:31:27;;;;;;;7.05;2.83;;;20.80;99.90;;;;;;5036268;28;20075;-51
2024/03/29 06:33:53;;;;;;;5.72;3.10;;;20.80;99.90;;;;;;5053327;28;20025;-50
2024/03/29 06:36:19;;;;;;;5.40;2.65;;;20.80;99.90;;;;;;5035763;28;20017;-52
2024/03/29 06:38:45;;;;;;;7.45;3.13;;;20.80;99.90;;;;;;5054492;28;20035;-50
2024/03/29 06:41:10;;;;;;;7.35;2.92;;;20.80;99.90;;;;;;5053934;28;20021;-50
2024/03/29 06:43:36;;;;;;;5.40;2.83;;;20.80;99.90;;;;;;5054258;28;20051;-50
2024/03/29 06:46:03;;;;;;;5.22;2.95;;;20.80;99.90;;;;;;5055183;28;20437;-50
2024/03/29 06:48:32;;;;;;;6.67;2.93;;;20.80;99.90;;;;;;5055045;28;20085;-51
2024/03/29 06:50:58;;;;;;;8.10;3.35;;;20.80;99.90;;;;;;5054919;28;20092;-50
2024/03/29 06:53:24;;;;;;;6.22;3.33;;;20.80;99.90;;;;;;5054900;28;20418;-50
2024/03/29 06:55:50;;;;;;;6.97;2.70;;;20.80;99.90;;;;;;5054946;28;20021;-50
2024/03/29 06:58:16;;;;;;;5.45;3.05;;;20.80;99.90;;;;;;5037090;28;20036;-50
2024/03/29 07:00:45;;;;;;;5.38;2.90;;;20.80;99.90;;;;;;5054681;28;20021;-50
2024/03/29 07:03:11;;;;;;;6.38;2.70;;;20.70;99.90;;;;;;5054688;28;20037;-50
2024/03/29 07:05:36;;;;;;;5.72;2.85;;;20.80;99.90;;;;;;5037393;28;20399;-50
2024/03/29 07:08:02;;;;;;;4.40;2.95;;;20.70;99.90;;;;;;5054776;28;20048;-50
2024/03/29 07:10:28;;;;;;;5.75;3.50;;;20.80;99.90;;;;;;5054449;28;20070;-51
2024/03/29 07:12:54;;;;;;;6.43;3.35;;;20.80;99.90;;;;;;5054606;28;20388;-50
2024/03/29 07:15:19;;;;;;;8.68;3.60;;;20.70;99.90;;;;;;5054596;28;20060;-51
2024/03/29 07:17:50;;;;;;;6.10;3.45;;;20.80;99.90;;;;;;5054552;28;20025;-51
2024/03/29 07:20:16;;;;;;;5.25;3.33;;;20.80;99.90;;;;;;5054599;28;20025;-50
2024/03/29 07:22:42;;;;;;;5.72;3.35;;;20.80;99.90;;;;;;5054381;28;20059;-50
2024/03/29 07:25:08;;;;;;;6.35;3.45;;;20.70;99.90;;;;;;5054458;28;20024;-50
2024/03/29 07:27:35;;;;;;;7.93;3.60;;;20.80;99.90;;;;;;5054630;28;20025;-51
2024/03/29 07:30:04;;;;;;;5.55;3.53;;;20.70;99.90;;;;;;5036565;28;20025;-51
2024/03/29 07:32:30;;;;;;;6.03;3.65;;;20.70;99.90;;;;;;5054097;28;20385;-51
2024/03/29 07:34:58;;;;;;;5.63;3.43;;;20.80;99.90;;;;;;5054436;28;20415;-51
2024/03/29 07:37:24;;;;;;;6.00;3.70;;;20.70;99.90;;;;;;5054300;28;20692;-52
2024/03/29 07:39:50;;;;;;;5.22;3.30;;;20.70;99.90;;;;;;5054113;28;20104;-51
2024/03/29 07:42:16;;;;;;;7.72;3.75;;;20.80;99.90;;;;;;5054353;28;20426;-51
2024/03/29 07:44:42;;;;;;;5.80;3.65;;;20.80;99.90;;;;;;5035412;28;20055;-52
2024/03/29 07:47:08;;;;;;;5.75;3.45;;;20.70;99.90;;;;;;5053849;28;20029;-51
2024/03/29 07:49:34;;;;;;;7.05;3.30;;;20.80;99.90;;;;;;5053815;28;20021;-51
2024/03/29 07:52:02;;;;;;;5.55;3.45;;;20.80;99.90;;;;;;5053799;28;20420;-51
2024/03/29 07:54:28;;;;;;;9.52;4.13;;;20.70;99.90;;;;;;5053807;28;20070;-52
2024/03/29 07:56:54;;;;;;;7.88;3.67;;;20.80;99.90;;;;;;5053615;28;20021;-51
2024/03/29 07:59:19;;;;;;;5.85;3.28;;;20.80;99.90;;;;;;5035994;28;20435;-52
2024/03/29 08:01:45;;;;;;;5.18;3.90;;;20.80;99.90;;;;;;5053352;28;20047;-51
2024/03/29 08:04:11;;;;;;;6.43;3.55;;;20.80;99.90;;;;;;5053455;28;20045;-51
2024/03/29 08:06:37;;;;;;;7.25;3.45;;;20.80;99.90;;;;;;5053740;28;20025;-51
2024/03/29 08:09:03;;;;;;;6.70;3.75;;;20.80;99.90;;;;;;5053510;28;20036;-51
2024/03/29 08:11:29;;;;;;;7.88;4.13;;;20.70;99.90;;;;;;5053479;28;20039;-51
2024/03/29 08:13:55;;;;;;;7.70;3.70;;;20.80;99.90;;;;;;5053440;28;20465;-51
2024/03/29 08:16:21;;;;;;;6.60;3.65;;;20.80;99.90;;;;;;5053346;28;20013;-51
2024/03/29 08:18:47;;;;;;;6.53;3.92;;;20.70;99.90;;;;;;5053407;28;20111;-51
2024/03/29 08:21:14;;;;;;;6.97;3.65;;;20.80;99.90;;;;;;5053380;28;20017;-51
2024/03/29 08:23:46;;;;;;;6.57;3.92;;;20.80;99.90;;;;;;5053465;28;20040;-50
2024/03/29 08:26:12;;;;;;;6.18;4.13;;;20.70;99.90;;;;;;5053352;28;20028;-51
2024/03/29 08:28:38;;;;;;;6.40;3.42;;;20.80;99.90;;;;;;5053354;28;20029;-51
2024/03/29 08:31:09;;;;;;;6.32;3.63;;;20.80;99.90;;;;;;5053234;28;20044;-51
2024/03/29 08:33:37;;;;;;;7.65;3.92;;;20.80;99.90;;;;;;5053275;28;20029;-51
2024/03/29 08:36:08;;;;;;;5.88;3.42;;;20.70;99.90;;;;;;5053288;28;20080;-51
2024/03/29 08:38:34;;;;;;;7.72;3.20;;;20.80;99.90;;;;;;5053120;28;20039;-50
2024/03/29 08:41:00;;;;;;;7.88;3.55;;;20.70;99.90;;;;;;5053300;28;20539;-50
2024/03/29 08:43:26;;;;;;;7.25;3.35;;;20.70;99.90;;;;;;5018921;28;20037;-51
2024/03/29 08:45:52;;;;;;;6.68;3.60;;;20.70;99.90;;;;;;5053091;28;20025;-51
2024/03/29 08:48:18;;;;;;;5.53;3.50;;;20.70;99.90;;;;;;5052886;28;20025;-51
2024/03/29 08:50:44;;;;;;;6.18;4.10;;;20.80;99.90;;;;;;5053086;28;20025;-51
2024/03/29 08:53:10;;;;;;;7.30;4.13;;;20.70;99.90;;;;;;5052914;28;20052;-52
2024/03/29 08:55:37;;;;;;;6.13;3.95;;;20.70;99.90;;;;;;5052874;28;20045;-51
2024/03/29 08:58:03;;;;;;;13.23;4.65;;;20.70;99.90;;;;;;5056982;28;20384;-52
2024/03/29 09:00:30;;;;;;;7.57;4.28;;;20.70;99.90;;;;;;5039157;28;20376;-51
2024/03/29 09:02:56;;;;;;;6.03;3.67;;;20.70;99.90;;;;;;5057099;28;20120;-50
2024/03/29 09:05:22;;;;;;;6.65;3.70;;;20.70;99.90;;;;;;5038986;28;20060;-50
2024/03/29 09:07:51;;;;;;;6.43;3.47;;;20.70;99.90;;;;;;5057129;28;20029;-51
2024/03/29 09:10:17;;;;;;;5.88;3.35;;;20.70;99.90;;;;;;5056623;28;20112;-52
2024/03/29 09:12:43;;;;;;;7.00;4.13;;;20.70;99.90;;;;;;5056758;28;20111;-51
2024/03/29 09:15:13;;;;;;;7.47;4.25;;;20.70;99.90;;;;;;5056732;28;20031;-51
2024/03/29 09:17:43;;;;;;;8.48;4.43;;;20.70;99.90;;;;;;5056699;28;20040;-51
2024/03/29 09:20:09;;;;;;;7.32;3.92;;;20.70;99.90;;;;;;5056676;28;20032;-51
2024/03/29 09:22:35;;;;;;;6.60;3.67;;;20.70;99.90;;;;;;5056675;28;20099;-51
2024/03/29 09:25:01;;;;;;;8.48;3.95;;;20.70;99.90;;;;;;5056461;28;20557;-51
2024/03/29 09:27:28;;;;;;;9.25;4.20;;;20.70;99.90;;;;;;5056503;28;20027;-51
2024/03/29 09:29:55;;;;;;;9.43;4.87;;;20.70;99.90;;;;;;5038511;28;20052;-51
2024/03/29 09:32:22;;;;;;;;;;;20.70;99.90;;;;;;5056929;28;20025;-51
2024/03/29 09:34:48;;;;;;;6.43;4.03;;;20.70;99.90;;;;;;5056702;28;19908;-51
2024/03/29 09:37:14;;;;;;;10.25;4.13;;;20.70;99.90;;;;;;5056585;28;20035;-51
2024/03/29 09:39:40;;;;;;;5.97;4.18;;;20.70;99.90;;;;;;5056201;28;20029;-51
2024/03/29 09:42:12;;;;;;;6.45;4.20;;;20.70;99.90;;;;;;5056111;28;20029;-50
2024/03/29 09:44:38;;;;;;;8.55;4.47;;;20.70;99.90;;;;;;5056116;28;20116;-50
2024/03/29 09:47:04;;;;;;;6.78;3.95;;;20.70;99.90;;;;;;5056283;28;20032;-50
2024/03/29 09:49:32;;;;;;;8.32;3.95;;;20.70;99.90;;;;;;5038388;28;20078;-51
2024/03/29 09:52:02;;;;;;;4.35;3.22;;;20.70;99.90;;;;;;5056081;28;20025;-51
2024/03/29 09:54:29;;;;;;;6.28;3.55;;;20.70;99.90;;;;;;5038096;28;20034;-51
2024/03/29 09:56:57;;;;;;;7.45;4.32;;;20.70;99.90;;;;;;5054323;28;20135;-51
2024/03/29 09:59:24;;;;;;;8.55;4.25;;;20.70;99.90;;;;;;5055548;28;20029;-52
2024/03/29 10:01:51;;;;;;;8.85;4.22;;;20.60;99.90;;;;;;5055465;28;20360;-51
2024/03/29 10:04:20;;;;;;;;;;;20.60;99.90;;;;;;5055977;28;20039;-50
2024/03/29 10:06:50;;;;;;;6.55;3.67;;;20.60;99.90;;;;;;5037440;28;19912;-51
2024/03/29 10:09:19;;;;;;;10.00;4.18;;;20.60;99.90;;;;;;5054499;28;20028;-52
2024/03/29 10:11:47;;;;;;;7.60;4.38;;;20.60;99.90;;;;;;5055784;28;20021;-52
2024/03/29 10:14:12;;;;;;;7.75;3.30;;;20.60;99.90;;;;;;5055720;28;20021;-52
2024/03/29 10:16:38;;;;;;;6.28;3.92;;;20.60;99.90;;;;;;5055567;28;20052;-52
2024/03/29 10:19:06;;;;;;;6.07;3.60;;;20.50;99.90;;;;;;5055639;28;20099;-53
2024/03/29 10:21:33;;;;;;;7.05;3.75;;;20.50;99.90;;;;;;5055618;28;20013;-52
2024/03/29 10:23:59;;;;;;;6.30;3.20;;;20.50;99.90;;;;;;5055421;28;20037;-51
2024/03/29 10:26:25;;;;;;;5.18;3.42;;;20.60;99.90;;;;;;5055473;28;20025;-52
2024/03/29 10:28:51;;;;;;;6.40;3.97;;;20.50;99.90;;;;;;5055349;28;20028;-51
2024/03/29 10:31:17;;;;;;;7.43;3.22;;;20.50;99.90;;;;;;5037460;28;20028;-51
2024/03/29 10:33:44;;;;;;;6.82;3.72;;;20.50;99.90;;;;;;5055175;28;20074;-51
2024/03/29 10:36:12;;;;;;;8.70;3.38;;;20.50;99.90;;;;;;5055363;28;20105;-51
2024/03/29 10:38:37;;;;;;;;;;;20.60;99.90;;;;;;5037659;28;20025;-51
2024/03/29 10:41:06;;;;;;;7.05;3.53;;;20.60;99.90;;;;;;5055238;28;20191;-51
2024/03/29 10:43:33;;;;;;;5.30;3.53;;;20.60;99.90;;;;;;5055019;28;20120;-51
2024/03/29 10:46:00;;;;;;;5.05;3.47;;;20.60;99.90;;;;;;5055146;28;20114;-51
2024/03/29 10:48:28;;;;;;;6.50;4.15;;;20.60;99.90;;;;;;5055056;28;20025;-50
2024/03/29 10:50:54;;;;;;;;;;;20.60;99.90;;;;;;5055429;28;20435;-50
2024/03/29 10:53:25;;;;;;;5.80;3.50;;;20.60;99.90;;;;;;5055013;28;19904;-51
2024/03/29 10:55:56;;;;;;;6.10;3.72;;;20.50;99.90;;;;;;5054885;28;20017;-50
2024/03/29 10:58:25;;;;;;;4.78;3.40;;;20.50;99.90;;;;;;5055006;28;20029;-51
2024/03/29 11:00:56;;;;;;;6.82;3.50;;;20.50;99.90;;;;;;5054577;28;20057;-50
2024/03/29 11:03:44;;;;;;;6.53;3.55;;;20.50;99.90;;;;;;5054480;28;20033;-51
2024/03/29 11:06:14;;;;;;;5.85;3.78;;;20.50;99.90;;;;;;5054452;28;20469;-51
2024/03/29 11:08:45;;;;;;;5.45;3.92;;;20.60;99.90;;;;;;5054567;28;20384;-51
2024/03/29 11:11:12;;;;;;;5.85;3.35;;;20.50;99.90;;;;;;5054459;28;20025;-52
2024/03/29 11:13:52;;;;;;;7.05;3.90;;;20.50;99.90;;;;;;5054473;28;20025;-50
2024/03/29 11:16:21;;;;;;;5.53;3.40;;;20.50;99.90;;;;;;5054355;28;20071;-49
2024/03/29 11:18:48;;;;;;;6.55;3.55;;;20.50;99.90;;;;;;5053828;28;20116;-50
2024/03/29 11:21:21;;;;;;;5.90;3.88;;;20.50;99.90;;;;;;5054716;28;20017;-51
2024/03/29 11:23:52;;;;;;;5.80;3.17;;;20.50;99.90;;;;;;5054290;28;20037;-51
2024/03/29 11:26:18;;;;;;;6.40;3.60;;;20.50;99.90;;;;;;5054134;28;20058;-51
2024/03/29 11:28:49;;;;;;;5.10;3.58;;;20.60;99.90;;;;;;5054072;28;20112;-52
2024/03/29 11:31:15;;;;;;;6.07;3.58;;;20.50;99.90;;;;;;5054003;28;20048;-51
2024/03/29 11:33:48;;;;;;;5.97;3.90;;;20.60;99.90;;;;;;5036178;28;20025;-51
2024/03/29 11:36:32;;;;;;;3.70;3.05;;;20.60;99.90;;;;;;5054022;28;20025;-52
2024/03/29 11:38:58;;;;;;;6.40;3.60;;;20.60;99.90;;;;;;5054099;28;20075;-52
2024/03/29 11:41:29;;;;;;;5.68;3.60;;;20.60;99.90;;;;;;5036402;28;20025;-52
2024/03/29 11:43:55;;;;;;;5.60;3.30;;;20.60;99.90;;;;;;5054065;28;20033;-51
2024/03/29 11:46:21;;;;;;;6.57;3.25;;;20.60;99.90;;;;;;5054240;28;20033;-52
2024/03/29 11:48:49;;;;;;;5.85;3.50;;;20.70;99.90;;;;;;5053939;28;20056;-51
2024/03/29 11:51:16;;;;;;;5.05;3.22;;;20.70;99.90;;;;;;5036076;28;20025;-52
2024/03/29 11:53:43;;;;;;;5.13;3.63;;;20.70;99.90;;;;;;5053925;28;20029;-51
2024/03/29 11:56:11;;;;;;;6.05;2.95;;;20.70;99.90;;;;;;5036249;28;20496;-52
2024/03/29 11:58:38;;;;;;;5.45;2.90;;;20.70;99.90;;;;;;5035777;28;20033;-51
2024/03/29 12:01:04;;;;;;;8.55;4.50;;;20.80;99.90;;;;;;5053514;28;20036;-52
2024/03/29 12:03:32;;;;;;;3.25;2.85;;;20.70;99.90;;;;;;5035647;28;20053;-51
2024/03/29 12:06:01;;;;;;;4.30;2.67;;;20.70;99.90;;;;;;5053380;28;20044;-52
2024/03/29 12:08:32;;;;;;;4.28;3.00;;;20.70;99.90;;;;;;5035475;28;20025;-51
2024/03/29 12:11:02;;;;;;;6.38;2.97;;;20.70;99.90;;;;;;5053528;28;20112;-52
2024/03/29 12:13:28;;;;;;;6.57;3.22;;;20.80;99.90;;;;;;5053374;28;20025;-51
2024/03/29 12:15:54;;;;;;;5.60;2.60;;;20.80;99.90;;;;;;5053142;28;20029;-51
2024/03/29 12:18:21;;;;;;;5.18;2.88;;;20.80;99.90;;;;;;5053324;28;20453;-51
2024/03/29 12:20:52;;;;;;;6.07;2.92;;;20.80;99.90;;;;;;5035889;28;20130;-51
2024/03/29 12:23:19;;;;;;;4.75;2.70;;;20.90;99.90;;;;;;5053353;28;20069;-51
2024/03/29 12:25:46;;;;;;;4.53;2.28;;;20.80;99.90;;;;;;5035462;28;20071;-51
2024/03/29 12:28:14;;;;;;;3.10;2.38;;;20.80;99.90;;;;;;5053158;28;20511;-51
2024/03/29 12:30:47;;;;;;;5.20;2.30;;;20.90;99.90;;;;;;5043638;28;20096;-51
2024/03/29 12:33:19;;;;;;;3.20;2.28;;;20.90;99.90;;;;;;5041470;28;20097;-52
2024/03/29 12:35:51;;;;;;;3.95;2.40;;;20.90;99.90;;;;;;5040408;28;20026;-52
2024/03/29 12:38:18;;;;;;;4.50;2.30;;;20.90;99.90;;;;;;5015533;28;20470;-52
2024/03/29 12:40:49;;;;;;;3.92;2.80;;;21.00;99.90;;;;;;5034549;28;20021;-51
2024/03/29 12:43:19;;;;;;;3.58;2.33;;;21.00;99.90;;;;;;5043069;28;20037;-51
2024/03/29 12:45:46;;;;;;;4.78;2.90;;;21.00;99.90;;;;;;5016887;28;20425;-51
2024/03/29 12:48:16;;;;;;;4.97;2.80;;;21.00;99.90;;;;;;5038357;28;20017;-51
2024/03/29 12:50:44;;;;;;;13.15;2.60;;;21.00;99.90;;;;;;5048887;28;20484;-51
2024/03/29 12:53:11;;;;;;;6.75;2.78;;;21.00;99.90;;;;;;5035459;28;20036;-51
2024/03/29 12:55:39;;;;;;;;;;;21.00;99.90;;;;;;5042297;28;20039;-51
2024/03/29 12:58:09;;;;;;;6.63;3.22;;;21.00;99.90;;;;;;5038851;28;20337;-52